This is the latest recevied weather packets stored in our database for station/object M7PDA-1. If no packets are shown the sender has not sent any weather packets the latest 10 day(s).
| Time | Temp. | Humidity | Pressure | Rain* | Wind** | Luminosity | Snow |
|---|---|---|---|---|---|---|---|
| 1777090285 | 6.67° C | 63% | 1023.5 hPa | - | - | - | - |
| 1777089384 | 6.67° C | 63% | 1023.7 hPa | - | - | - | - |
| 1777088484 | 7.22° C | 62% | 1023.7 hPa | - | - | - | - |
| 1777087583 | 7.22° C | 62% | 1023.8 hPa | - | - | - | - |
| 1777086682 | 7.22° C | 63% | 1023.8 hPa | - | - | - | - |
| 1777085781 | 7.22° C | 62% | 1023.9 hPa | - | - | - | - |
| 1777084880 | 7.78° C | 60% | 1023.9 hPa | - | - | - | - |
| 1777083980 | 7.78° C | 60% | 1024 hPa | - | - | - | - |
| 1777083079 | 8.33° C | 60% | 1024 hPa | - | - | - | - |
| 1777082178 | 7.78° C | 61% | 1024.2 hPa | - | - | - | - |
| 1777081277 | 7.78° C | 60% | 1024.3 hPa | - | - | - | - |
| 1777080376 | 7.78° C | 60% | 1024.3 hPa | - | - | - | - |
| 1777079476 | 8.33° C | 58% | 1024.3 hPa | - | - | - | - |
| 1777078574 | 8.33° C | 59% | 1024.5 hPa | - | - | - | - |
| 1777077674 | 8.33° C | 60% | 1024.8 hPa | - | - | - | - |
| 1777076773 | 8.33° C | 60% | 1024.8 hPa | - | - | - | - |
| 1777075872 | 8.33° C | 59% | 1024.9 hPa | - | - | - | - |
| 1777074971 | 8.89° C | 59% | 1025 hPa | - | - | - | - |
| 1777074070 | 9.44° C | 59% | 1025 hPa | - | - | - | - |
| 1777073170 | 9.44° C | 58% | 1025.1 hPa | - | - | - | - |
| 1777072269 | 10° C | 56% | 1025.1 hPa | - | - | - | - |
| 1777071368 | 10° C | 57% | 1025.1 hPa | - | - | - | - |
| 1777070467 | 9.44° C | 59% | 1025.2 hPa | - | - | - | - |
| 1777069566 | 10.56° C | 59% | 1025.2 hPa | - | - | - | - |
| 1777068665 | 10.56° C | 59% | 1025.2 hPa | - | - | - | - |
* Rain since midnight (hover to see other rain measurements)
** Current wind speed in m/s (hover to see current wind gust speed)